sensor_id;sensor_type;location;lat;lon;timestamp;P1;durP1;ratioP1;P2;durP2;ratioP2
12334;SDS011;6233;51.560;9.986;2022-11-15T00:00:32;6.73;;;4.40;;
12334;SDS011;6233;51.560;9.986;2022-11-15T00:03:33;4.57;;;4.17;;
12334;SDS011;6233;51.560;9.986;2022-11-15T00:06:35;7.37;;;4.53;;
12334;SDS011;6233;51.560;9.986;2022-11-15T00:09:37;6.10;;;4.50;;
12334;SDS011;6233;51.560;9.986;2022-11-15T00:12:46;5.00;;;4.33;;
12334;SDS011;6233;51.560;9.986;2022-11-15T00:15:47;5.27;;;4.13;;
12334;SDS011;6233;51.560;9.986;2022-11-15T00:18:49;5.27;;;4.30;;
12334;SDS011;6233;51.560;9.986;2022-11-15T00:21:51;6.27;;;4.20;;
12334;SDS011;6233;51.560;9.986;2022-11-15T00:24:52;5.37;;;4.57;;
12334;SDS011;6233;51.560;9.986;2022-11-15T00:27:55;5.53;;;4.50;;
12334;SDS011;6233;51.560;9.986;2022-11-15T00:31:01;4.60;;;4.20;;
12334;SDS011;6233;51.560;9.986;2022-11-15T00:34:06;4.87;;;4.23;;
12334;SDS011;6233;51.560;9.986;2022-11-15T00:37:07;5.30;;;4.23;;
12334;SDS011;6233;51.560;9.986;2022-11-15T00:40:11;5.27;;;4.50;;
12334;SDS011;6233;51.560;9.986;2022-11-15T00:43:14;5.90;;;4.70;;
12334;SDS011;6233;51.560;9.986;2022-11-15T00:46:15;4.40;;;4.00;;
12334;SDS011;6233;51.560;9.986;2022-11-15T00:49:17;5.27;;;4.63;;
12334;SDS011;6233;51.560;9.986;2022-11-15T00:52:18;6.03;;;4.10;;
12334;SDS011;6233;51.560;9.986;2022-11-15T00:55:20;5.23;;;4.60;;
12334;SDS011;6233;51.560;9.986;2022-11-15T00:58:22;5.63;;;4.40;;
12334;SDS011;6233;51.560;9.986;2022-11-15T01:01:23;5.20;;;4.37;;
12334;SDS011;6233;51.560;9.986;2022-11-15T01:04:25;6.00;;;4.80;;
12334;SDS011;6233;51.560;9.986;2022-11-15T01:07:27;6.17;;;4.37;;
12334;SDS011;6233;51.560;9.986;2022-11-15T01:10:28;5.20;;;4.53;;
12334;SDS011;6233;51.560;9.986;2022-11-15T01:13:31;5.40;;;4.53;;
12334;SDS011;6233;51.560;9.986;2022-11-15T01:16:34;5.17;;;4.03;;
12334;SDS011;6233;51.560;9.986;2022-11-15T01:19:36;6.27;;;4.67;;
12334;SDS011;6233;51.560;9.986;2022-11-15T01:22:37;5.57;;;4.30;;
12334;SDS011;6233;51.560;9.986;2022-11-15T01:25:41;6.77;;;4.40;;
12334;SDS011;6233;51.560;9.986;2022-11-15T01:28:43;5.50;;;4.53;;
12334;SDS011;6233;51.560;9.986;2022-11-15T01:31:44;4.90;;;4.33;;
12334;SDS011;6233;51.560;9.986;2022-11-15T01:34:46;5.33;;;4.07;;
12334;SDS011;6233;51.560;9.986;2022-11-15T01:37:48;7.57;;;4.93;;
12334;SDS011;6233;51.560;9.986;2022-11-15T01:40:49;6.47;;;5.00;;
12334;SDS011;6233;51.560;9.986;2022-11-15T01:43:53;7.13;;;4.33;;
12334;SDS011;6233;51.560;9.986;2022-11-15T01:47:03;6.10;;;4.13;;
12334;SDS011;6233;51.560;9.986;2022-11-15T01:50:09;5.00;;;4.43;;
12334;SDS011;6233;51.560;9.986;2022-11-15T01:53:14;5.50;;;4.27;;
12334;SDS011;6233;51.560;9.986;2022-11-15T01:56:19;5.30;;;4.17;;
12334;SDS011;6233;51.560;9.986;2022-11-15T01:59:26;5.40;;;4.27;;
12334;SDS011;6233;51.560;9.986;2022-11-15T02:02:28;5.53;;;3.93;;
12334;SDS011;6233;51.560;9.986;2022-11-15T02:05:30;5.73;;;3.87;;
12334;SDS011;6233;51.560;9.986;2022-11-15T02:08:32;4.23;;;3.80;;
12334;SDS011;6233;51.560;9.986;2022-11-15T02:11:34;4.23;;;3.60;;
12334;SDS011;6233;51.560;9.986;2022-11-15T02:14:37;4.67;;;3.93;;
12334;SDS011;6233;51.560;9.986;2022-11-15T02:17:58;4.37;;;3.90;;
12334;SDS011;6233;51.560;9.986;2022-11-15T02:21:40;4.73;;;3.90;;
12334;SDS011;6233;51.560;9.986;2022-11-15T02:25:21;4.43;;;3.80;;
12334;SDS011;6233;51.560;9.986;2022-11-15T02:31:58;5.00;;;4.10;;
12334;SDS011;6233;51.560;9.986;2022-11-15T02:35:11;5.80;;;3.93;;
12334;SDS011;6233;51.560;9.986;2022-11-15T02:41:52;4.60;;;4.07;;
12334;SDS011;6233;51.560;9.986;2022-11-15T02:44:58;6.50;;;4.30;;
12334;SDS011;6233;51.560;9.986;2022-11-15T02:48:08;5.70;;;3.80;;
12334;SDS011;6233;51.560;9.986;2022-11-15T02:51:11;5.37;;;3.77;;
12334;SDS011;6233;51.560;9.986;2022-11-15T02:54:15;5.63;;;3.90;;
12334;SDS011;6233;51.560;9.986;2022-11-15T02:57:29;4.90;;;3.80;;
12334;SDS011;6233;51.560;9.986;2022-11-15T03:01:12;4.17;;;3.77;;
12334;SDS011;6233;51.560;9.986;2022-11-15T03:08:06;3.70;;;3.40;;
12334;SDS011;6233;51.560;9.986;2022-11-15T03:11:17;5.93;;;4.13;;
12334;SDS011;6233;51.560;9.986;2022-11-15T03:14:21;4.20;;;3.60;;
12334;SDS011;6233;51.560;9.986;2022-11-15T03:20:35;5.13;;;3.93;;
12334;SDS011;6233;51.560;9.986;2022-11-15T03:23:38;4.23;;;3.80;;
12334;SDS011;6233;51.560;9.986;2022-11-15T03:26:41;4.63;;;3.80;;
12334;SDS011;6233;51.560;9.986;2022-11-15T03:29:48;4.87;;;3.93;;
12334;SDS011;6233;51.560;9.986;2022-11-15T03:32:56;5.47;;;4.00;;
12334;SDS011;6233;51.560;9.986;2022-11-15T03:35:59;5.50;;;3.43;;
12334;SDS011;6233;51.560;9.986;2022-11-15T03:39:08;5.30;;;3.97;;
12334;SDS011;6233;51.560;9.986;2022-11-15T03:45:33;5.90;;;3.83;;
12334;SDS011;6233;51.560;9.986;2022-11-15T03:49:04;4.30;;;3.90;;
12334;SDS011;6233;51.560;9.986;2022-11-15T03:52:10;5.33;;;3.80;;
12334;SDS011;6233;51.560;9.986;2022-11-15T03:55:13;3.70;;;3.40;;
12334;SDS011;6233;51.560;9.986;2022-11-15T03:58:18;4.33;;;3.80;;
12334;SDS011;6233;51.560;9.986;2022-11-15T04:01:20;4.30;;;3.70;;
12334;SDS011;6233;51.560;9.986;2022-11-15T04:04:21;4.37;;;3.73;;
12334;SDS011;6233;51.560;9.986;2022-11-15T04:07:23;5.93;;;3.90;;
12334;SDS011;6233;51.560;9.986;2022-11-15T04:10:28;4.57;;;3.73;;
12334;SDS011;6233;51.560;9.986;2022-11-15T04:13:30;4.40;;;3.90;;
12334;SDS011;6233;51.560;9.986;2022-11-15T04:16:35;4.53;;;3.97;;
12334;SDS011;6233;51.560;9.986;2022-11-15T04:19:43;4.07;;;3.67;;
12334;SDS011;6233;51.560;9.986;2022-11-15T04:23:05;4.97;;;3.77;;
12334;SDS011;6233;51.560;9.986;2022-11-15T04:26:38;5.03;;;3.87;;
12334;SDS011;6233;51.560;9.986;2022-11-15T04:29:43;4.70;;;3.73;;
12334;SDS011;6233;51.560;9.986;2022-11-15T04:32:44;5.40;;;4.30;;
12334;SDS011;6233;51.560;9.986;2022-11-15T04:35:46;5.67;;;3.70;;
12334;SDS011;6233;51.560;9.986;2022-11-15T04:39:08;4.30;;;3.90;;
12334;SDS011;6233;51.560;9.986;2022-11-15T04:42:10;5.00;;;3.73;;
12334;SDS011;6233;51.560;9.986;2022-11-15T04:45:12;5.50;;;3.53;;
12334;SDS011;6233;51.560;9.986;2022-11-15T04:48:14;5.43;;;3.50;;
12334;SDS011;6233;51.560;9.986;2022-11-15T04:51:16;5.17;;;4.67;;
12334;SDS011;6233;51.560;9.986;2022-11-15T04:54:18;4.37;;;3.93;;
12334;SDS011;6233;51.560;9.986;2022-11-15T04:57:20;5.60;;;3.90;;
12334;SDS011;6233;51.560;9.986;2022-11-15T05:00:21;4.57;;;4.03;;
12334;SDS011;6233;51.560;9.986;2022-11-15T05:03:23;7.87;;;4.10;;
12334;SDS011;6233;51.560;9.986;2022-11-15T05:06:44;6.40;;;4.10;;
12334;SDS011;6233;51.560;9.986;2022-11-15T05:09:47;6.43;;;5.50;;
12334;SDS011;6233;51.560;9.986;2022-11-15T05:12:48;9.07;;;4.93;;
12334;SDS011;6233;51.560;9.986;2022-11-15T05:15:50;6.60;;;4.07;;
12334;SDS011;6233;51.560;9.986;2022-11-15T05:18:52;4.83;;;3.90;;
12334;SDS011;6233;51.560;9.986;2022-11-15T05:21:54;4.80;;;3.70;;
12334;SDS011;6233;51.560;9.986;2022-11-15T05:24:56;4.43;;;4.03;;
12334;SDS011;6233;51.560;9.986;2022-11-15T05:27:58;5.13;;;4.10;;
12334;SDS011;6233;51.560;9.986;2022-11-15T05:31:07;8.57;;;5.53;;
12334;SDS011;6233;51.560;9.986;2022-11-15T05:34:10;7.13;;;5.83;;
12334;SDS011;6233;51.560;9.986;2022-11-15T05:37:13;6.73;;;4.70;;
12334;SDS011;6233;51.560;9.986;2022-11-15T05:40:15;5.30;;;4.10;;
12334;SDS011;6233;51.560;9.986;2022-11-15T05:43:17;6.03;;;4.37;;
12334;SDS011;6233;51.560;9.986;2022-11-15T05:46:18;9.13;;;5.73;;
12334;SDS011;6233;51.560;9.986;2022-11-15T05:49:21;5.00;;;4.50;;
12334;SDS011;6233;51.560;9.986;2022-11-15T05:52:28;6.90;;;4.03;;
12334;SDS011;6233;51.560;9.986;2022-11-15T05:55:32;6.87;;;5.43;;
12334;SDS011;6233;51.560;9.986;2022-11-15T05:58:34;6.63;;;5.47;;
12334;SDS011;6233;51.560;9.986;2022-11-15T06:01:37;5.40;;;4.40;;
12334;SDS011;6233;51.560;9.986;2022-11-15T06:04:40;5.90;;;4.23;;
12334;SDS011;6233;51.560;9.986;2022-11-15T06:07:42;4.40;;;3.90;;
12334;SDS011;6233;51.560;9.986;2022-11-15T06:10:45;4.60;;;4.20;;
12334;SDS011;6233;51.560;9.986;2022-11-15T06:13:46;6.80;;;4.37;;
12334;SDS011;6233;51.560;9.986;2022-11-15T06:16:48;5.93;;;4.00;;
12334;SDS011;6233;51.560;9.986;2022-11-15T06:19:50;5.10;;;4.13;;
12334;SDS011;6233;51.560;9.986;2022-11-15T06:22:56;5.23;;;4.00;;
12334;SDS011;6233;51.560;9.986;2022-11-15T06:25:59;5.63;;;3.90;;
12334;SDS011;6233;51.560;9.986;2022-11-15T06:29:03;6.20;;;3.93;;
12334;SDS011;6233;51.560;9.986;2022-11-15T06:32:05;5.10;;;4.13;;
12334;SDS011;6233;51.560;9.986;2022-11-15T06:35:07;6.43;;;4.27;;
12334;SDS011;6233;51.560;9.986;2022-11-15T06:38:09;6.40;;;4.20;;
12334;SDS011;6233;51.560;9.986;2022-11-15T06:41:12;6.40;;;4.10;;
12334;SDS011;6233;51.560;9.986;2022-11-15T06:44:14;4.80;;;4.10;;
12334;SDS011;6233;51.560;9.986;2022-11-15T06:47:17;4.30;;;3.90;;
12334;SDS011;6233;51.560;9.986;2022-11-15T06:50:19;5.67;;;3.97;;
12334;SDS011;6233;51.560;9.986;2022-11-15T06:53:21;4.23;;;3.73;;
12334;SDS011;6233;51.560;9.986;2022-11-15T06:59:53;4.43;;;4.03;;
12334;SDS011;6233;51.560;9.986;2022-11-15T07:02:55;4.47;;;4.07;;
12334;SDS011;6233;51.560;9.986;2022-11-15T07:06:01;4.63;;;4.07;;
12334;SDS011;6233;51.560;9.986;2022-11-15T07:09:08;5.00;;;4.10;;
12334;SDS011;6233;51.560;9.986;2022-11-15T07:12:09;5.37;;;3.90;;
12334;SDS011;6233;51.560;9.986;2022-11-15T07:15:11;4.33;;;3.60;;
12334;SDS011;6233;51.560;9.986;2022-11-15T07:18:13;5.60;;;4.00;;
12334;SDS011;6233;51.560;9.986;2022-11-15T07:21:14;4.50;;;4.00;;
12334;SDS011;6233;51.560;9.986;2022-11-15T07:24:16;4.60;;;4.10;;
12334;SDS011;6233;51.560;9.986;2022-11-15T07:27:17;5.37;;;3.90;;
12334;SDS011;6233;51.560;9.986;2022-11-15T07:30:19;7.60;;;5.00;;
12334;SDS011;6233;51.560;9.986;2022-11-15T07:33:21;4.97;;;3.93;;
12334;SDS011;6233;51.560;9.986;2022-11-15T07:36:23;4.93;;;3.93;;
12334;SDS011;6233;51.560;9.986;2022-11-15T07:39:25;4.20;;;3.63;;
12334;SDS011;6233;51.560;9.986;2022-11-15T07:42:26;4.10;;;3.70;;
12334;SDS011;6233;51.560;9.986;2022-11-15T07:45:47;4.30;;;3.50;;
12334;SDS011;6233;51.560;9.986;2022-11-15T07:48:58;4.40;;;3.80;;
12334;SDS011;6233;51.560;9.986;2022-11-15T07:52:03;5.63;;;3.63;;
12334;SDS011;6233;51.560;9.986;2022-11-15T07:55:06;4.50;;;3.97;;
12334;SDS011;6233;51.560;9.986;2022-11-15T07:58:09;4.80;;;3.60;;
12334;SDS011;6233;51.560;9.986;2022-11-15T08:01:12;4.23;;;3.83;;
12334;SDS011;6233;51.560;9.986;2022-11-15T08:04:14;4.37;;;3.57;;
12334;SDS011;6233;51.560;9.986;2022-11-15T08:07:18;4.07;;;3.50;;
12334;SDS011;6233;51.560;9.986;2022-11-15T08:10:20;6.57;;;3.80;;
12334;SDS011;6233;51.560;9.986;2022-11-15T08:13:22;5.53;;;3.57;;
12334;SDS011;6233;51.560;9.986;2022-11-15T08:16:24;4.63;;;3.70;;
12334;SDS011;6233;51.560;9.986;2022-11-15T08:19:25;3.73;;;3.43;;
12334;SDS011;6233;51.560;9.986;2022-11-15T08:22:27;3.80;;;3.50;;
12334;SDS011;6233;51.560;9.986;2022-11-15T08:25:30;4.67;;;3.50;;
12334;SDS011;6233;51.560;9.986;2022-11-15T08:28:33;4.67;;;3.60;;
12334;SDS011;6233;51.560;9.986;2022-11-15T08:31:35;3.80;;;3.47;;
12334;SDS011;6233;51.560;9.986;2022-11-15T08:34:38;4.63;;;4.10;;
12334;SDS011;6233;51.560;9.986;2022-11-15T08:37:42;4.17;;;3.63;;
12334;SDS011;6233;51.560;9.986;2022-11-15T08:40:44;5.40;;;3.70;;
12334;SDS011;6233;51.560;9.986;2022-11-15T08:43:46;5.03;;;3.83;;
12334;SDS011;6233;51.560;9.986;2022-11-15T08:46:48;5.40;;;3.73;;
12334;SDS011;6233;51.560;9.986;2022-11-15T08:49:49;4.00;;;3.70;;
12334;SDS011;6233;51.560;9.986;2022-11-15T08:52:51;5.47;;;3.70;;
12334;SDS011;6233;51.560;9.986;2022-11-15T08:55:53;4.67;;;3.57;;
12334;SDS011;6233;51.560;9.986;2022-11-15T08:58:54;7.27;;;3.70;;
12334;SDS011;6233;51.560;9.986;2022-11-15T09:01:56;4.83;;;3.30;;
12334;SDS011;6233;51.560;9.986;2022-11-15T09:04:58;4.43;;;3.80;;
12334;SDS011;6233;51.560;9.986;2022-11-15T09:08:00;3.57;;;3.27;;
12334;SDS011;6233;51.560;9.986;2022-11-15T09:11:22;3.37;;;3.03;;
12334;SDS011;6233;51.560;9.986;2022-11-15T09:14:24;4.47;;;3.40;;
12334;SDS011;6233;51.560;9.986;2022-11-15T09:20:56;3.90;;;3.47;;
12334;SDS011;6233;51.560;9.986;2022-11-15T09:24:01;3.63;;;3.33;;
12334;SDS011;6233;51.560;9.986;2022-11-15T09:27:04;5.80;;;3.50;;
12334;SDS011;6233;51.560;9.986;2022-11-15T09:30:06;4.67;;;3.40;;
12334;SDS011;6233;51.560;9.986;2022-11-15T09:33:08;3.93;;;3.27;;
12334;SDS011;6233;51.560;9.986;2022-11-15T09:36:11;3.80;;;3.50;;
12334;SDS011;6233;51.560;9.986;2022-11-15T09:39:16;5.00;;;3.13;;
12334;SDS011;6233;51.560;9.986;2022-11-15T09:49:06;4.40;;;3.10;;
12334;SDS011;6233;51.560;9.986;2022-11-15T09:52:10;3.67;;;3.33;;
12334;SDS011;6233;51.560;9.986;2022-11-15T09:55:13;3.53;;;3.20;;
12334;SDS011;6233;51.560;9.986;2022-11-15T10:04:35;4.90;;;4.27;;
12334;SDS011;6233;51.560;9.986;2022-11-15T10:11:02;4.97;;;3.57;;
12334;SDS011;6233;51.560;9.986;2022-11-15T10:14:26;5.43;;;3.30;;
12334;SDS011;6233;51.560;9.986;2022-11-15T10:17:49;3.27;;;2.97;;
12334;SDS011;6233;51.560;9.986;2022-11-15T10:20:58;4.63;;;4.17;;
12334;SDS011;6233;51.560;9.986;2022-11-15T10:24:10;4.17;;;3.50;;
12334;SDS011;6233;51.560;9.986;2022-11-15T10:30:20;5.23;;;3.53;;
12334;SDS011;6233;51.560;9.986;2022-11-15T10:36:26;6.17;;;3.47;;
12334;SDS011;6233;51.560;9.986;2022-11-15T10:51:56;2.90;;;2.60;;
12334;SDS011;6233;51.560;9.986;2022-11-15T11:04:53;4.90;;;3.30;;
12334;SDS011;6233;51.560;9.986;2022-11-15T11:07:56;5.80;;;3.70;;
12334;SDS011;6233;51.560;9.986;2022-11-15T11:11:00;4.93;;;3.03;;
12334;SDS011;6233;51.560;9.986;2022-11-15T11:34:49;3.50;;;2.83;;
12334;SDS011;6233;51.560;9.986;2022-11-15T11:47:54;4.50;;;3.00;;
12334;SDS011;6233;51.560;9.986;2022-11-15T11:51:27;2.90;;;2.60;;
12334;SDS011;6233;51.560;9.986;2022-11-15T11:54:51;3.87;;;3.10;;
12334;SDS011;6233;51.560;9.986;2022-11-15T12:01:25;4.57;;;2.77;;
12334;SDS011;6233;51.560;9.986;2022-11-15T12:04:37;4.40;;;3.03;;
12334;SDS011;6233;51.560;9.986;2022-11-15T12:07:44;3.47;;;3.17;;
12334;SDS011;6233;51.560;9.986;2022-11-15T12:10:53;4.30;;;3.10;;
12334;SDS011;6233;51.560;9.986;2022-11-15T12:17:38;3.23;;;2.93;;
12334;SDS011;6233;51.560;9.986;2022-11-15T12:20:47;3.17;;;2.87;;
12334;SDS011;6233;51.560;9.986;2022-11-15T12:27:35;4.23;;;3.17;;
12334;SDS011;6233;51.560;9.986;2022-11-15T12:30:45;2.93;;;2.63;;
12334;SDS011;6233;51.560;9.986;2022-11-15T12:33:56;3.10;;;2.80;;
12334;SDS011;6233;51.560;9.986;2022-11-15T12:37:32;4.73;;;3.00;;
12334;SDS011;6233;51.560;9.986;2022-11-15T12:40:35;4.90;;;2.97;;
12334;SDS011;6233;51.560;9.986;2022-11-15T12:43:39;3.33;;;2.63;;
12334;SDS011;6233;51.560;9.986;2022-11-15T12:49:47;5.77;;;3.13;;
12334;SDS011;6233;51.560;9.986;2022-11-15T12:56:25;4.57;;;3.30;;
12334;SDS011;6233;51.560;9.986;2022-11-15T13:03:26;4.00;;;3.00;;
12334;SDS011;6233;51.560;9.986;2022-11-15T13:06:39;3.57;;;3.23;;
12334;SDS011;6233;51.560;9.986;2022-11-15T13:16:00;3.27;;;2.90;;
12334;SDS011;6233;51.560;9.986;2022-11-15T13:19:02;4.40;;;3.27;;
12334;SDS011;6233;51.560;9.986;2022-11-15T13:22:08;4.57;;;3.40;;
12334;SDS011;6233;51.560;9.986;2022-11-15T13:29:27;3.77;;;3.37;;
12334;SDS011;6233;51.560;9.986;2022-11-15T13:32:30;4.70;;;3.10;;
12334;SDS011;6233;51.560;9.986;2022-11-15T13:35:32;3.30;;;2.97;;
12334;SDS011;6233;51.560;9.986;2022-11-15T13:38:37;3.57;;;3.27;;
12334;SDS011;6233;51.560;9.986;2022-11-15T13:41:50;3.83;;;3.20;;
12334;SDS011;6233;51.560;9.986;2022-11-15T13:44:57;4.87;;;3.47;;
12334;SDS011;6233;51.560;9.986;2022-11-15T13:48:03;4.17;;;3.20;;
12334;SDS011;6233;51.560;9.986;2022-11-15T13:51:13;4.80;;;3.17;;
12334;SDS011;6233;51.560;9.986;2022-11-15T13:54:28;3.87;;;3.10;;
12334;SDS011;6233;51.560;9.986;2022-11-15T13:57:48;5.07;;;3.60;;
12334;SDS011;6233;51.560;9.986;2022-11-15T14:01:02;6.33;;;3.43;;
12334;SDS011;6233;51.560;9.986;2022-11-15T14:04:05;7.80;;;3.47;;
12334;SDS011;6233;51.560;9.986;2022-11-15T14:07:14;3.83;;;3.43;;
12334;SDS011;6233;51.560;9.986;2022-11-15T14:10:25;3.60;;;3.30;;
12334;SDS011;6233;51.560;9.986;2022-11-15T14:13:33;4.60;;;3.83;;
12334;SDS011;6233;51.560;9.986;2022-11-15T14:19:39;5.83;;;4.20;;
12334;SDS011;6233;51.560;9.986;2022-11-15T14:22:50;4.27;;;3.80;;
12334;SDS011;6233;51.560;9.986;2022-11-15T14:25:57;6.80;;;4.10;;
12334;SDS011;6233;51.560;9.986;2022-11-15T14:32:25;4.53;;;3.87;;
12334;SDS011;6233;51.560;9.986;2022-11-15T14:35:31;4.93;;;3.93;;
12334;SDS011;6233;51.560;9.986;2022-11-15T14:38:33;6.00;;;4.23;;
12334;SDS011;6233;51.560;9.986;2022-11-15T14:41:36;5.00;;;3.80;;
12334;SDS011;6233;51.560;9.986;2022-11-15T14:44:41;4.20;;;3.80;;
12334;SDS011;6233;51.560;9.986;2022-11-15T14:47:46;4.03;;;3.57;;
12334;SDS011;6233;51.560;9.986;2022-11-15T14:50:48;3.80;;;3.40;;
12334;SDS011;6233;51.560;9.986;2022-11-15T14:53:50;6.13;;;4.00;;
12334;SDS011;6233;51.560;9.986;2022-11-15T14:56:52;5.67;;;4.17;;
12334;SDS011;6233;51.560;9.986;2022-11-15T14:59:56;3.77;;;3.37;;
12334;SDS011;6233;51.560;9.986;2022-11-15T15:02:58;5.07;;;3.97;;
12334;SDS011;6233;51.560;9.986;2022-11-15T15:06:00;6.20;;;4.20;;
12334;SDS011;6233;51.560;9.986;2022-11-15T15:09:01;4.30;;;3.90;;
12334;SDS011;6233;51.560;9.986;2022-11-15T15:12:04;4.77;;;3.53;;
12334;SDS011;6233;51.560;9.986;2022-11-15T15:15:32;6.07;;;4.20;;
12334;SDS011;6233;51.560;9.986;2022-11-15T15:18:36;5.37;;;3.80;;
12334;SDS011;6233;51.560;9.986;2022-11-15T15:21:38;3.90;;;3.53;;
12334;SDS011;6233;51.560;9.986;2022-11-15T15:24:40;4.83;;;3.90;;
12334;SDS011;6233;51.560;9.986;2022-11-15T15:27:45;5.53;;;3.90;;
12334;SDS011;6233;51.560;9.986;2022-11-15T15:30:46;4.67;;;3.97;;
12334;SDS011;6233;51.560;9.986;2022-11-15T15:33:48;4.13;;;3.73;;
12334;SDS011;6233;51.560;9.986;2022-11-15T15:37:05;4.20;;;3.80;;
12334;SDS011;6233;51.560;9.986;2022-11-15T15:40:16;5.53;;;3.93;;
12334;SDS011;6233;51.560;9.986;2022-11-15T15:43:30;6.10;;;3.80;;
12334;SDS011;6233;51.560;9.986;2022-11-15T15:46:31;5.23;;;4.20;;
12334;SDS011;6233;51.560;9.986;2022-11-15T15:49:34;5.53;;;3.90;;
12334;SDS011;6233;51.560;9.986;2022-11-15T15:52:36;4.63;;;3.93;;
12334;SDS011;6233;51.560;9.986;2022-11-15T15:55:38;6.03;;;3.90;;
12334;SDS011;6233;51.560;9.986;2022-11-15T15:58:40;4.63;;;3.83;;
12334;SDS011;6233;51.560;9.986;2022-11-15T16:01:44;5.40;;;3.83;;
12334;SDS011;6233;51.560;9.986;2022-11-15T16:04:45;7.53;;;3.87;;
12334;SDS011;6233;51.560;9.986;2022-11-15T16:07:47;6.77;;;4.10;;
12334;SDS011;6233;51.560;9.986;2022-11-15T16:10:50;7.40;;;3.97;;
12334;SDS011;6233;51.560;9.986;2022-11-15T16:13:52;6.67;;;4.80;;
12334;SDS011;6233;51.560;9.986;2022-11-15T16:16:53;5.33;;;3.87;;
12334;SDS011;6233;51.560;9.986;2022-11-15T16:23:05;5.33;;;4.63;;
12334;SDS011;6233;51.560;9.986;2022-11-15T16:26:26;5.37;;;4.53;;
12334;SDS011;6233;51.560;9.986;2022-11-15T16:29:29;6.33;;;4.57;;
12334;SDS011;6233;51.560;9.986;2022-11-15T16:32:31;5.77;;;4.03;;
12334;SDS011;6233;51.560;9.986;2022-11-15T16:35:33;6.27;;;4.73;;
12334;SDS011;6233;51.560;9.986;2022-11-15T16:38:35;5.10;;;4.40;;
12334;SDS011;6233;51.560;9.986;2022-11-15T16:41:40;6.13;;;4.93;;
12334;SDS011;6233;51.560;9.986;2022-11-15T16:44:45;8.77;;;4.70;;
12334;SDS011;6233;51.560;9.986;2022-11-15T16:47:47;7.00;;;4.97;;
12334;SDS011;6233;51.560;9.986;2022-11-15T16:50:49;5.50;;;4.40;;
12334;SDS011;6233;51.560;9.986;2022-11-15T16:53:51;6.17;;;4.83;;
12334;SDS011;6233;51.560;9.986;2022-11-15T16:56:53;5.00;;;4.50;;
12334;SDS011;6233;51.560;9.986;2022-11-15T16:59:55;6.43;;;4.80;;
12334;SDS011;6233;51.560;9.986;2022-11-15T17:02:57;6.97;;;5.23;;
12334;SDS011;6233;51.560;9.986;2022-11-15T17:05:59;6.93;;;4.60;;
12334;SDS011;6233;51.560;9.986;2022-11-15T17:09:00;6.63;;;4.50;;
12334;SDS011;6233;51.560;9.986;2022-11-15T17:12:02;9.07;;;4.53;;
12334;SDS011;6233;51.560;9.986;2022-11-15T17:18:11;6.97;;;5.23;;
12334;SDS011;6233;51.560;9.986;2022-11-15T17:21:15;7.27;;;5.53;;
12334;SDS011;6233;51.560;9.986;2022-11-15T17:24:18;9.97;;;7.27;;
12334;SDS011;6233;51.560;9.986;2022-11-15T17:27:23;10.90;;;7.80;;
12334;SDS011;6233;51.560;9.986;2022-11-15T17:30:24;6.23;;;5.03;;
12334;SDS011;6233;51.560;9.986;2022-11-15T17:33:26;8.03;;;5.63;;
12334;SDS011;6233;51.560;9.986;2022-11-15T17:36:28;6.03;;;4.77;;
12334;SDS011;6233;51.560;9.986;2022-11-15T17:39:30;5.00;;;4.33;;
12334;SDS011;6233;51.560;9.986;2022-11-15T17:42:32;5.53;;;4.07;;
12334;SDS011;6233;51.560;9.986;2022-11-15T17:45:34;6.13;;;4.90;;
12334;SDS011;6233;51.560;9.986;2022-11-15T17:48:40;4.17;;;3.77;;
12334;SDS011;6233;51.560;9.986;2022-11-15T17:51:44;7.17;;;5.53;;
12334;SDS011;6233;51.560;9.986;2022-11-15T17:54:50;6.90;;;4.63;;
12334;SDS011;6233;51.560;9.986;2022-11-15T17:57:51;6.53;;;4.07;;
12334;SDS011;6233;51.560;9.986;2022-11-15T18:00:53;4.70;;;4.20;;
12334;SDS011;6233;51.560;9.986;2022-11-15T18:03:55;5.60;;;4.33;;
12334;SDS011;6233;51.560;9.986;2022-11-15T18:07:00;5.97;;;4.70;;
12334;SDS011;6233;51.560;9.986;2022-11-15T18:10:02;4.97;;;4.47;;
12334;SDS011;6233;51.560;9.986;2022-11-15T18:13:08;7.00;;;4.87;;
12334;SDS011;6233;51.560;9.986;2022-11-15T18:16:11;8.30;;;4.97;;
12334;SDS011;6233;51.560;9.986;2022-11-15T18:19:31;5.87;;;4.40;;
12334;SDS011;6233;51.560;9.986;2022-11-15T18:22:33;6.40;;;4.27;;
12334;SDS011;6233;51.560;9.986;2022-11-15T18:25:35;5.03;;;4.53;;
12334;SDS011;6233;51.560;9.986;2022-11-15T18:28:37;6.37;;;4.30;;
12334;SDS011;6233;51.560;9.986;2022-11-15T18:31:40;5.53;;;3.93;;
12334;SDS011;6233;51.560;9.986;2022-11-15T18:34:47;4.57;;;4.17;;
12334;SDS011;6233;51.560;9.986;2022-11-15T18:37:49;4.50;;;4.00;;
12334;SDS011;6233;51.560;9.986;2022-11-15T18:40:51;7.83;;;4.20;;
12334;SDS011;6233;51.560;9.986;2022-11-15T18:43:56;4.47;;;4.07;;
12334;SDS011;6233;51.560;9.986;2022-11-15T18:46:59;5.37;;;4.00;;
12334;SDS011;6233;51.560;9.986;2022-11-15T18:50:01;4.63;;;4.03;;
12334;SDS011;6233;51.560;9.986;2022-11-15T18:53:03;5.67;;;3.97;;
12334;SDS011;6233;51.560;9.986;2022-11-15T18:56:09;3.83;;;3.47;;
12334;SDS011;6233;51.560;9.986;2022-11-15T18:59:12;5.40;;;4.03;;
12334;SDS011;6233;51.560;9.986;2022-11-15T19:02:15;4.40;;;4.00;;
12334;SDS011;6233;51.560;9.986;2022-11-15T19:05:16;4.20;;;3.80;;
12334;SDS011;6233;51.560;9.986;2022-11-15T19:08:21;4.20;;;3.80;;
12334;SDS011;6233;51.560;9.986;2022-11-15T19:11:27;5.27;;;4.60;;
12334;SDS011;6233;51.560;9.986;2022-11-15T19:14:31;4.60;;;3.90;;
12334;SDS011;6233;51.560;9.986;2022-11-15T19:17:32;5.30;;;3.97;;
12334;SDS011;6233;51.560;9.986;2022-11-15T19:20:34;5.23;;;4.23;;
12334;SDS011;6233;51.560;9.986;2022-11-15T19:23:39;5.20;;;4.00;;
12334;SDS011;6233;51.560;9.986;2022-11-15T19:26:44;4.40;;;3.87;;
12334;SDS011;6233;51.560;9.986;2022-11-15T19:29:46;4.53;;;3.67;;
12334;SDS011;6233;51.560;9.986;2022-11-15T19:32:47;5.10;;;4.40;;
12334;SDS011;6233;51.560;9.986;2022-11-15T19:35:49;4.70;;;4.20;;
12334;SDS011;6233;51.560;9.986;2022-11-15T19:38:51;4.37;;;3.73;;
12334;SDS011;6233;51.560;9.986;2022-11-15T19:41:53;5.03;;;3.70;;
12334;SDS011;6233;51.560;9.986;2022-11-15T19:44:57;4.33;;;3.67;;
12334;SDS011;6233;51.560;9.986;2022-11-15T19:47:59;4.83;;;3.93;;
12334;SDS011;6233;51.560;9.986;2022-11-15T19:51:02;4.57;;;4.10;;
12334;SDS011;6233;51.560;9.986;2022-11-15T19:54:05;4.00;;;3.60;;
12334;SDS011;6233;51.560;9.986;2022-11-15T19:57:09;3.70;;;3.30;;
12334;SDS011;6233;51.560;9.986;2022-11-15T20:00:10;5.57;;;3.77;;
12334;SDS011;6233;51.560;9.986;2022-11-15T20:03:12;3.70;;;3.07;;
12334;SDS011;6233;51.560;9.986;2022-11-15T20:06:18;3.80;;;3.40;;
12334;SDS011;6233;51.560;9.986;2022-11-15T20:09:23;4.47;;;3.57;;
12334;SDS011;6233;51.560;9.986;2022-11-15T20:12:26;4.60;;;3.20;;
12334;SDS011;6233;51.560;9.986;2022-11-15T20:15:27;3.20;;;2.90;;
12334;SDS011;6233;51.560;9.986;2022-11-15T20:18:29;4.00;;;3.00;;
12334;SDS011;6233;51.560;9.986;2022-11-15T20:21:31;3.33;;;3.03;;
12334;SDS011;6233;51.560;9.986;2022-11-15T20:24:33;4.10;;;3.23;;
12334;SDS011;6233;51.560;9.986;2022-11-15T20:27:35;4.73;;;3.50;;
12334;SDS011;6233;51.560;9.986;2022-11-15T20:30:37;4.43;;;3.47;;
12334;SDS011;6233;51.560;9.986;2022-11-15T20:33:39;3.47;;;3.17;;
12334;SDS011;6233;51.560;9.986;2022-11-15T20:36:40;3.57;;;3.03;;
12334;SDS011;6233;51.560;9.986;2022-11-15T20:39:42;4.17;;;3.00;;
12334;SDS011;6233;51.560;9.986;2022-11-15T20:42:46;3.20;;;2.90;;
12334;SDS011;6233;51.560;9.986;2022-11-15T20:45:48;3.37;;;3.03;;
12334;SDS011;6233;51.560;9.986;2022-11-15T20:48:50;3.23;;;2.97;;
12334;SDS011;6233;51.560;9.986;2022-11-15T20:51:52;4.60;;;3.57;;
12334;SDS011;6233;51.560;9.986;2022-11-15T20:54:55;5.10;;;3.50;;
12334;SDS011;6233;51.560;9.986;2022-11-15T20:57:56;5.00;;;3.37;;
12334;SDS011;6233;51.560;9.986;2022-11-15T21:00:58;3.10;;;2.70;;
12334;SDS011;6233;51.560;9.986;2022-11-15T21:04:00;4.70;;;3.63;;
12334;SDS011;6233;51.560;9.986;2022-11-15T21:07:02;4.77;;;3.33;;
12334;SDS011;6233;51.560;9.986;2022-11-15T21:10:03;3.87;;;3.33;;
12334;SDS011;6233;51.560;9.986;2022-11-15T21:13:24;3.67;;;3.30;;